Time;durP1;ratioP1;P1;durP2;ratioP2;P2;SDS_P1;SDS_P2;PMS_P1;PMS_P2;Temp;Humidity;BMP_temperature;BMP_pressure;BME280_temperature;BME280_humidity;BME280_pressure;Samples;Min_cycle;Max_cycle;Signal;HPM_P1;HPM_P2
2022/05/29 00:01:06;;;;;;;10.65;3.25;;;;;;;-148.88;92.43;76264.75;5018398;28;20029;-84
2022/05/29 00:03:31;;;;;;;10.00;3.17;;;;;;;-148.88;92.94;76262.72;5018239;28;20536;-84
2022/05/29 00:05:57;;;;;;;13.93;3.15;;;;;;;-148.88;92.77;76264.75;5036162;28;20471;-85
2022/05/29 00:08:27;;;;;;;8.40;3.10;;;;;;;-148.88;93.89;76262.72;5018167;28;20493;-85
2022/05/29 00:10:53;;;;;;;14.40;3.25;;;;;;;-148.88;93.85;76262.72;5036298;28;20024;-84
2022/05/29 00:13:19;;;;;;;13.77;3.22;;;;;;;-148.88;94.38;76264.75;5018312;28;20029;-85
2022/05/29 00:15:44;;;;;;;9.80;3.20;;;;;;;-148.88;94.71;76264.75;5036409;28;20445;-85
2022/05/29 00:18:10;;;;;;;9.88;3.45;;;;;;;-148.88;94.71;76252.56;5017994;28;20493;-86
2022/05/29 00:20:36;;;;;;;12.52;3.67;;;;;;;-148.88;94.37;76254.59;5018092;28;20032;-85
2022/05/29 00:23:05;;;;;;;8.93;3.53;;;;;;;-148.88;94.72;76252.56;5017633;28;20025;-83
2022/05/29 00:25:31;;;;;;;11.88;3.20;;;;;;;-148.88;93.76;76232.25;5018471;28;20021;-85
2022/05/29 00:27:56;;;;;;;9.77;3.63;;;;;;;-148.88;93.67;76230.22;5018414;28;20028;-85
2022/05/29 00:30:22;;;;;;;11.25;3.78;;;;;;;-148.88;94.75;76236.31;5035631;28;20032;-83
2022/05/29 00:32:48;;;;;;;14.82;3.38;;;;;;;-148.88;94.21;76240.38;5035574;28;20363;-84
2022/05/29 00:35:13;;;;;;;11.15;3.42;;;;;;;-148.88;93.96;76226.16;5017397;28;20021;-84
2022/05/29 00:37:40;;;;;;;12.20;3.53;;;;;;;-148.88;94.42;76226.16;5017901;28;20457;-83
2022/05/29 00:40:21;;;;;;;13.32;3.63;;;;;;;-148.88;93.72;76220.06;5017764;28;20043;-84
2022/05/29 00:42:46;;;;;;;13.18;3.33;;;;;;;-148.88;93.77;76216.00;5017740;28;20025;-84
2022/05/29 00:45:22;;;;;;;9.93;3.13;;;;;;;-148.88;93.67;76213.97;5018317;28;20035;-85
2022/05/29 00:47:47;;;;;;;11.05;3.83;;;;;;;-148.88;93.61;76224.13;5018531;28;20068;-84
2022/05/29 00:50:16;;;;;;;16.08;3.80;;;;;;;-148.88;94.12;76220.06;5017670;28;20021;-84
2022/05/29 00:52:41;;;;;;;10.68;4.15;;;;;;;-148.88;94.01;76218.03;5035954;28;20025;-83
2022/05/29 00:55:16;;;;;;;13.02;3.58;;;;;;;-148.88;94.07;76216.00;5035487;28;20467;-85
2022/05/29 00:57:48;;;;;;;13.60;3.67;;;;;;;-148.88;93.62;76211.94;5017735;28;20061;-84
2022/05/29 01:00:22;;;;;;;10.15;3.35;;;;;;;-148.88;93.59;76203.81;5017632;28;20475;-85
2022/05/29 01:02:52;;;;;;;14.60;3.50;;;;;;;-148.88;93.82;76195.69;5018390;28;20025;-83
2022/05/29 01:05:19;;;;;;;6.85;3.05;;;;;;;-148.88;93.41;76191.63;5035849;28;20041;-84
2022/05/29 01:07:48;;;;;;;12.23;3.70;;;;;;;-148.88;93.28;76203.81;5018097;28;20033;-84
2022/05/29 01:10:13;;;;;;;9.70;3.67;;;;;;;-148.88;94.83;76207.88;5018002;28;20032;-84
2022/05/29 01:12:48;;;;;;;13.70;3.95;;;;;;;-148.88;94.38;76207.88;5035596;28;20025;-84
2022/05/29 01:15:19;;;;;;;13.30;3.88;;;;;;;-148.88;94.61;76195.69;5017448;28;20026;-84
2022/05/29 01:17:52;;;;;;;9.93;3.88;;;;;;;-148.88;93.87;76191.63;5017087;28;20471;-83
2022/05/29 01:20:38;;;;;;;14.85;3.70;;;;;;;-148.88;93.74;76183.50;5017148;28;20048;-84
2022/05/29 01:23:21;;;;;;;8.80;3.15;;;;;;;-148.88;93.23;76183.50;5017706;28;20040;-82
2022/05/29 01:26:17;;;;;;;12.98;3.90;;;;;;;-148.88;94.12;76187.56;5034537;28;20079;-84
2022/05/29 01:29:06;;;;;;;10.70;4.07;;;;;;;-148.88;93.82;76193.66;5035329;28;20030;-84
2022/05/29 01:31:58;;;;;;;11.80;3.42;;;;;;;-148.88;94.09;76183.50;5034723;28;20029;-84
2022/05/29 01:34:46;;;;;;;11.55;3.45;;;;;;;-148.88;94.38;76179.44;5034412;28;20482;-82
2022/05/29 01:37:27;;;;;;;10.55;3.47;;;;;;;-148.88;94.41;76193.66;5016602;28;20057;-84
2022/05/29 01:40:12;;;;;;;11.15;3.88;;;;;;;-148.88;94.22;76195.69;5017546;28;20025;-84
2022/05/29 01:42:51;;;;;;;14.80;4.10;;;;;;;-148.88;94.46;76179.44;5016412;28;20026;-84
2022/05/29 01:45:53;;;;;;;9.75;3.55;;;;;;;-148.88;94.21;76189.59;5017294;28;20031;-83
2022/05/29 01:48:27;;;;;;;13.77;4.18;;;;;;;-148.88;95.14;76195.69;5017147;28;20104;-84
2022/05/29 01:50:55;;;;;;;;;;;;;;;-148.88;95.74;76211.94;5016580;28;20017;-84
2022/05/29 01:53:28;;;;;;;12.85;4.00;;;;;;;-148.88;95.76;76213.97;5016451;28;19963;-84
2022/05/29 01:55:58;;;;;;;9.40;4.15;;;;;;;-148.88;95.75;76197.72;5034412;28;20029;-85
2022/05/29 01:58:40;;;;;;;12.43;3.78;;;;;;;-148.88;95.58;76191.63;5016853;28;20022;-85
2022/05/29 02:01:09;;;;;;;11.77;3.85;;;;;;;-148.88;95.89;76199.75;5016081;28;20490;-85
2022/05/29 02:03:47;;;;;;;10.73;4.03;;;;;;;-148.88;95.45;76207.88;5017302;28;20021;-84
2022/05/29 02:06:18;;;;;;;10.80;4.00;;;;;;;-148.88;95.57;76199.75;5016602;28;20028;-84
2022/05/29 02:09:07;;;;;;;10.02;3.97;;;;;;;-148.88;95.54;76209.91;5017263;28;20047;-85
2022/05/29 02:11:36;;;;;;;13.32;4.10;;;;;;;-148.88;95.64;76203.81;5015864;28;20014;-82
2022/05/29 02:14:12;;;;;;;13.90;4.45;;;;;;;-148.88;95.63;76207.88;5016201;28;20501;-84
2022/05/29 02:16:55;;;;;;;9.77;4.05;;;;;;;-148.88;95.96;76220.06;5034180;28;20116;-85
2022/05/29 02:20:00;;;;;;;11.30;3.90;;;;;;;-148.88;95.81;76213.97;5016671;28;20108;-83
2022/05/29 02:22:33;;;;;;;10.35;3.92;;;;;;;-148.88;96.43;76218.03;5020337;28;20037;-84
2022/05/29 02:25:14;;;;;;;17.55;4.40;;;;;;;-148.88;96.71;76226.16;5033847;28;20021;-83
2022/05/29 02:27:50;;;;;;;12.45;4.30;;;;;;;-148.88;96.60;76230.22;5033946;28;20112;-82
2022/05/29 02:30:34;;;;;;;15.93;4.28;;;;;;;-148.88;96.95;76226.16;5016540;28;20041;-82
2022/05/29 02:33:05;;;;;;;12.20;4.68;;;;;;;-148.88;96.62;76216.00;5016991;28;20029;-85
2022/05/29 02:35:44;;;;;;;10.77;4.18;;;;;;;-148.88;96.40;76193.66;5016017;28;20034;-84
2022/05/29 02:38:27;;;;;;;12.38;4.07;;;;;;;-148.88;96.57;76216.00;5016658;28;20029;-84
2022/05/29 02:41:06;;;;;;;13.77;4.38;;;;;;;-148.88;96.78;76220.06;5016285;28;20180;-85
2022/05/29 02:43:51;;;;;;;11.40;3.47;;;;;;;-148.88;96.69;76209.91;5016322;28;20026;-84
2022/05/29 02:46:52;;;;;;;11.32;3.88;;;;;;;-148.88;96.69;76211.94;5033111;28;20116;-80
2022/05/29 02:49:59;;;;;;;12.32;4.18;;;;;;;-148.88;97.16;76216.00;5016134;28;20108;-84
2022/05/29 02:52:28;;;;;;;10.60;4.28;;;;;;;-148.88;96.98;76195.69;4983259;28;20061;-85
2022/05/29 02:54:55;;;;;;;13.38;4.20;;;;;;;-148.88;96.53;76195.69;5017395;28;20116;-84
2022/05/29 02:57:20;;;;;;;8.45;4.40;;;;;;;-148.88;97.15;76195.69;5017422;28;20025;-84
2022/05/29 02:59:53;;;;;;;12.05;4.38;;;;;;;-148.88;97.68;76203.81;5016563;28;20033;-86
2022/05/29 03:03:20;;;;;;;13.43;4.70;;;;;;;-148.88;97.75;76193.66;5034091;28;20105;-85
2022/05/29 03:06:52;;;;;;;10.77;4.32;;;;;;;-148.88;98.51;76189.59;4868932;29;20036;-87
2022/05/29 03:09:51;;;;;;;11.40;4.57;;;;;;;-148.88;99.32;76195.69;4961553;28;20047;-84
2022/05/29 03:12:51;;;;;;;11.43;4.13;;;;;;;-148.88;99.12;76187.56;5034409;28;20081;-88
2022/05/29 03:15:54;;;;;;;14.00;4.47;;;;;;;-148.88;99.06;76187.56;5029090;28;20116;-88
2022/05/29 03:18:46;;;;;;;11.25;4.72;;;;;;;-148.88;99.28;76193.66;5022763;28;20025;-88
2022/05/29 03:21:33;;;;;;;14.20;4.70;;;;;;;-148.88;99.67;76187.56;5020870;28;20021;-87
2022/05/29 03:24:41;;;;;;;12.60;4.57;;;;;;;-148.88;98.94;76179.44;5020320;28;20025;-87
2022/05/29 03:27:25;;;;;;;11.73;4.75;;;;;;;-148.88;99.38;76187.56;5021173;28;20072;-87
2022/05/29 03:30:22;;;;;;;13.80;5.00;;;;;;;-148.88;99.61;76179.44;5020223;28;20036;-86
2022/05/29 03:32:52;;;;;;;13.10;4.72;;;;;;;-148.88;99.87;76183.50;5019567;28;20025;-87
2022/05/29 03:35:31;;;;;;;15.77;5.07;;;;;;;-148.88;99.67;76175.38;5038312;28;20017;-87
2022/05/29 03:38:03;;;;;;;12.98;4.47;;;;;;;-148.88;99.83;76189.59;5021358;28;20025;-88
2022/05/29 03:40:44;;;;;;;17.95;4.82;;;;;;;-148.88;99.62;76187.56;5037590;28;20145;-86
2022/05/29 03:43:09;;;;;;;14.57;5.13;;;;;;;-148.88;99.60;76183.50;5019939;28;20100;-86
2022/05/29 03:45:38;;;;;;;11.20;4.22;;;;;;;-148.88;99.99;76179.44;5020043;28;20049;-87
2022/05/29 03:48:07;;;;;;;13.13;4.57;;;;;;;-148.88;100.00;76177.41;5019726;28;20484;-85
2022/05/29 03:50:54;;;;;;;14.20;5.45;;;;;;;-148.88;100.00;76175.38;5018527;28;20033;-86
2022/05/29 03:53:29;;;;;;;11.73;4.55;;;;;;;-148.88;99.85;76167.25;5019785;28;20033;-86
2022/05/29 03:55:54;;;;;;;14.73;4.95;;;;;;;-148.88;99.89;76165.22;5037993;28;20390;-88
2022/05/29 03:58:26;;;;;;;14.15;4.60;;;;;;;-148.88;99.95;76167.25;5037955;28;20464;-88
2022/05/29 04:00:58;;;;;;;14.00;5.15;;;;;;;-148.88;100.00;76163.19;5019267;28;20037;-83
2022/05/29 04:03:40;;;;;;;19.08;5.38;;;;;;;-148.88;100.00;76173.34;5019344;28;20025;-86
2022/05/29 04:06:06;;;;;;;10.65;5.07;;;;;;;-148.88;100.00;76175.38;5019233;28;20033;-86
2022/05/29 04:14:11;;;;;;;14.73;4.75;;;;;;;-148.88;100.00;76171.31;5044192;22;20064;-77
2022/05/29 04:16:37;;;;;;;13.30;4.53;;;;;;;-148.88;100.00;76165.22;5035713;28;20033;-77
2022/05/29 04:19:02;;;;;;;13.30;5.10;;;;;;;-148.88;100.00;76179.44;5035329;28;20029;-77
2022/05/29 04:21:28;;;;;;;13.55;5.45;;;;;;;-148.88;100.00;76183.50;5035143;28;20024;-77
2022/05/29 04:23:53;;;;;;;14.48;5.05;;;;;;;-148.88;100.00;76179.44;5035261;28;20091;-77
2022/05/29 04:26:19;;;;;;;14.60;5.20;;;;;;;-148.88;100.00;76175.38;5035210;28;20025;-77
2022/05/29 04:28:45;;;;;;;15.65;5.38;;;;;;;-148.88;100.00;76181.47;5017190;28;20025;-77
2022/05/29 04:31:10;;;;;;;12.02;5.10;;;;;;;-148.88;100.00;76175.38;5017346;28;20028;-77
2022/05/29 04:33:36;;;;;;;15.02;5.68;;;;;;;-148.88;100.00;76183.50;5034954;28;20026;-77
2022/05/29 04:36:02;;;;;;;11.32;5.07;;;;;;;-148.88;100.00;76173.34;5034885;28;20492;-77
2022/05/29 04:38:28;;;;;;;14.25;4.95;;;;;;;-148.88;100.00;76179.44;5034674;28;20051;-77
2022/05/29 04:40:54;;;;;;;15.60;5.85;;;;;;;-148.88;100.00;76185.53;5034856;28;20033;-77
2022/05/29 04:43:20;;;;;;;11.68;5.55;;;;;;;-148.88;100.00;76179.44;5034777;28;20486;-77
2022/05/29 04:45:49;;;;;;;14.70;5.68;;;;;;;-148.88;100.00;76169.28;5034870;28;20037;-77
2022/05/29 04:48:16;;;;;;;14.65;5.25;;;;;;;-148.88;99.90;76163.19;5035160;28;20021;-78
2022/05/29 04:50:41;;;;;;;15.63;5.43;;;;;;;-148.88;99.61;76163.19;5016812;28;20032;-77
2022/05/29 04:53:07;;;;;;;14.90;5.32;;;;;;;-148.88;99.69;76151.00;5034975;28;20021;-77
2022/05/29 04:55:33;;;;;;;17.33;5.07;;;;;;;-148.88;98.92;76151.00;5017114;28;20033;-78
2022/05/29 04:57:58;;;;;;;11.38;4.50;;;;;;;-148.88;98.72;76159.13;5016902;28;20390;-78
2022/05/29 05:00:24;;;;;;;16.85;4.68;;;;;;;-148.88;98.13;76148.97;5034695;28;20021;-77
2022/05/29 05:02:49;;;;;;;12.18;4.85;;;;;;;-148.88;97.26;76126.59;5034801;28;20021;-78
2022/05/29 05:05:15;;;;;;;13.50;4.97;;;;;;;-148.88;97.29;76142.88;5034774;28;20031;-77
2022/05/29 05:07:41;;;;;;;8.93;4.70;;;;;;;-148.88;97.27;76132.72;5034920;28;20068;-78
2022/05/29 05:10:11;;;;;;;14.38;4.70;;;;;;;-148.88;96.23;76126.59;5035889;28;20423;-78
2022/05/29 05:12:37;;;;;;;12.18;5.03;;;;;;;-148.88;96.73;76138.81;5016896;28;20072;-78
2022/05/29 05:15:02;;;;;;;16.67;5.45;;;;;;;-148.88;96.62;76122.56;5034684;28;20084;-78
2022/05/29 05:17:28;;;;;;;9.10;5.32;;;;;;;-148.88;96.85;76128.66;5016790;28;20057;-78
2022/05/29 05:19:53;;;;;;;13.07;5.03;;;;;;;-148.88;96.81;76126.59;5034825;28;20036;-78
2022/05/29 05:22:18;;;;;;;13.27;5.15;;;;;;;-148.88;97.14;76128.66;5016823;28;20025;-78
2022/05/29 05:24:44;;;;;;;14.00;5.03;;;;;;;-148.88;96.88;76110.34;5034171;28;20037;-77
2022/05/29 05:27:09;;;;;;;11.07;5.47;;;;;;;-148.88;97.27;76116.44;5033991;28;20033;-77
2022/05/29 05:29:35;;;;;;;12.60;5.88;;;;;;;-148.88;97.67;76120.53;5016052;28;20543;-77
2022/05/29 05:32:00;;;;;;;17.30;6.22;;;;;;;-148.88;97.98;76114.41;5033737;28;20021;-77
2022/05/29 05:34:29;;;;;;;14.73;6.03;;;;;;;-148.88;96.59;76104.25;5033698;28;20021;-77
2022/05/29 05:36:55;;;;;;;16.48;5.70;;;;;;;-148.88;96.51;76102.22;5033026;28;20017;-77
2022/05/29 05:39:21;;;;;;;13.57;6.05;;;;;;;-148.88;96.65;76094.09;5033656;28;20482;-77
2022/05/29 05:41:47;;;;;;;14.75;5.93;;;;;;;-148.88;96.06;76085.97;5033562;28;20066;-77
2022/05/29 05:44:12;;;;;;;16.00;7.43;;;;;;;-148.88;96.01;76073.78;5033644;28;20503;-77
2022/05/29 05:46:46;;;;;;;28.05;7.30;;;;;;;-148.88;95.81;76075.81;5033406;28;20044;-76
2022/05/29 05:49:12;;;;;;;17.63;7.78;;;;;;;-148.88;95.86;76061.59;5033472;28;20032;-76
2022/05/29 05:51:38;;;;;;;21.13;7.90;;;;;;;-148.88;94.97;76049.41;5033447;28;20022;-76
2022/05/29 05:54:03;;;;;;;17.73;7.65;;;;;;;-148.88;95.52;76061.59;5015854;28;20075;-77
2022/05/29 05:56:29;;;;;;;21.52;8.27;;;;;;;-148.88;95.94;76063.63;5033382;28;20021;-76
2022/05/29 05:58:55;;;;;;;16.42;7.45;;;;;;;-148.88;95.48;76055.50;5033261;28;20032;-77
2022/05/29 06:01:20;;;;;;;15.60;8.05;;;;;;;-148.88;95.37;76061.59;5033663;28;20029;-75
2022/05/29 06:03:46;;;;;;;17.65;7.68;;;;;;;-148.88;96.55;76065.66;5033519;28;20029;-75
2022/05/29 06:06:11;;;;;;;20.40;7.18;;;;;;;-148.88;96.61;76057.53;5033049;28;20025;-75
2022/05/29 06:08:36;;;;;;;18.98;7.80;;;;;;;-148.88;97.19;76061.59;5033232;28;20025;-76
2022/05/29 06:11:03;;;;;;;18.75;8.45;;;;;;;-148.88;97.72;76067.69;5033210;28;20475;-76
2022/05/29 06:13:29;;;;;;;18.75;7.82;;;;;;;-148.88;97.84;76075.81;5033136;28;20534;-75
2022/05/29 06:15:54;;;;;;;20.05;7.85;;;;;;;-148.88;98.90;76092.06;5033123;28;20108;-76
2022/05/29 06:18:19;;;;;;;17.15;8.00;;;;;;;-148.88;99.59;76102.22;5033057;28;20025;-76
2022/05/29 06:20:46;;;;;;;19.17;8.73;;;;;;;-148.88;99.78;76083.94;5033062;28;20394;-76
2022/05/29 06:23:13;;;;;;;22.60;9.02;;;;;;;-148.88;100.00;76075.81;5033002;28;20391;-76
2022/05/29 06:25:39;;;;;;;16.92;8.32;;;;;;;-148.88;100.00;76090.03;5015365;28;20478;-76
2022/05/29 06:28:05;;;;;;;17.85;8.00;;;;;;;-148.88;100.00;76077.84;5033180;28;20035;-76
2022/05/29 06:30:30;;;;;;;18.02;7.65;;;;;;;-148.88;100.00;76067.69;5033086;28;20025;-76
2022/05/29 06:32:55;;;;;;;18.15;7.70;;;;;;;-148.88;100.00;76057.53;5015226;28;20489;-76
2022/05/29 06:35:21;;;;;;;16.95;7.85;;;;;;;-148.88;100.00;76075.81;5015299;28;20026;-76
2022/05/29 06:37:47;;;;;;;16.23;7.32;;;;;;;-148.88;100.00;76081.91;5033129;28;20148;-77
2022/05/29 06:40:13;;;;;;;18.33;7.90;;;;;;;-148.88;100.00;76065.66;5033345;28;20108;-76
2022/05/29 06:42:39;;;;;;;17.80;7.63;;;;;;;-148.88;100.00;76069.72;5009793;28;20026;-76
2022/05/29 06:45:06;;;;;;;16.83;7.30;;;;;;;-148.88;100.00;76053.47;5032706;28;20068;-77
2022/05/29 06:47:33;;;;;;;19.33;7.95;;;;;;;-148.88;100.00;76069.72;5030104;28;20068;-77
2022/05/29 06:49:59;;;;;;;18.08;7.50;;;;;;;-148.88;100.00;76069.72;5036016;28;20118;-77
2022/05/29 06:52:24;;;;;;;21.52;6.78;;;;;;;-148.88;100.00;76065.66;5036909;28;20028;-77
2022/05/29 06:54:50;;;;;;;15.88;7.22;;;;;;;-148.88;100.00;76063.63;5035711;28;20025;-77
2022/05/29 06:57:36;;;;;;;15.63;6.95;;;;;;;-148.88;100.00;76069.72;5036389;28;20112;-77
2022/05/29 07:08:03;;;;;;;11.52;6.30;;;;;;;-148.88;100.00;76045.34;5056306;28;20032;-77
2022/05/29 07:10:31;;;;;;;15.98;6.82;;;;;;;-148.88;100.00;76041.28;5056185;28;20024;-77
2022/05/29 07:12:57;;;;;;;12.02;5.93;;;;;;;-148.88;100.00;76043.31;5056247;28;20025;-77
2022/05/29 07:15:23;;;;;;;10.90;5.88;;;;;;;-148.88;100.00;76047.38;5055977;28;20028;-77
2022/05/29 07:17:49;;;;;;;14.70;5.85;;;;;;;-148.88;100.00;76029.09;5056307;28;20025;-77
2022/05/29 07:20:16;;;;;;;11.73;5.47;;;;;;;-148.88;100.00;76031.13;5037934;28;20055;-77
2022/05/29 07:22:43;;;;;;;11.48;5.78;;;;;;;-148.88;100.00;76039.25;5056903;28;20021;-77
2022/05/29 07:25:09;;;;;;;12.77;6.30;;;;;;;-148.88;100.00;76039.25;5056443;28;20029;-77
2022/05/29 07:27:35;;;;;;;18.00;6.35;;;;;;;-148.88;100.00;76023.00;5038110;28;20021;-77
2022/05/29 07:30:00;;;;;;;12.70;6.18;;;;;;;-148.88;100.00;76016.91;5045805;28;20050;-77
2022/05/29 07:32:25;;;;;;;13.20;6.13;;;;;;;-148.88;100.00;76016.91;5033746;28;20025;-77
2022/05/29 07:34:51;;;;;;;12.48;6.40;;;;;;;-148.88;100.00;76008.78;5018116;28;20018;-77
2022/05/29 07:37:17;;;;;;;9.73;5.53;;;;;;;-148.88;100.00;76025.03;5035926;28;20049;-77
2022/05/29 07:39:49;;;;;;;10.18;6.18;;;;;;;-148.88;100.00;76016.91;5035845;28;20063;-77
2022/05/29 07:45:02;;;;;;;12.38;7.10;;;;;;;-148.88;100.00;76000.66;5035757;28;20441;-77
2022/05/29 07:47:28;;;;;;;14.18;7.35;;;;;;;-148.88;100.00;76004.72;5035827;28;20018;-77
2022/05/29 07:49:56;;;;;;;12.57;7.25;;;;;;;-148.88;100.00;76002.69;5043519;22;20012;-84
2022/05/29 07:52:21;;;;;;;15.07;8.35;;;;;;;-148.88;100.00;75988.47;5018475;28;20037;-83
2022/05/29 07:54:46;;;;;;;14.93;9.07;;;;;;;-148.88;100.00;75964.09;5018907;28;20108;-84
2022/05/29 07:57:12;;;;;;;16.15;7.07;;;;;;;-148.88;100.00;75982.38;5018670;28;20394;-85
2022/05/29 07:59:38;;;;;;;13.60;7.03;;;;;;;-148.88;100.00;75960.03;5036181;28;20021;-83
2022/05/29 08:02:06;;;;;;;12.80;6.35;;;;;;;-148.88;100.00;75962.06;5037151;28;20021;-83
2022/05/29 08:04:31;;;;;;;16.13;5.57;;;;;;;-148.88;100.00;75933.63;5038055;28;20072;-85
2022/05/29 08:06:56;;;;;;;15.10;5.78;;;;;;;-148.88;100.00;75947.84;5036405;28;20025;-83
2022/05/29 08:09:22;;;;;;;13.88;5.82;;;;;;;-148.88;100.00;75923.47;5019124;28;20034;-82
2022/05/29 08:11:48;;;;;;;11.73;5.82;;;;;;;-148.88;100.00;75911.28;5036926;28;20025;-82
2022/05/29 08:14:13;;;;;;;10.65;5.00;;;;;;;-148.88;100.00;75899.09;5036325;28;20026;-82
2022/05/29 08:16:39;;;;;;;10.70;5.20;;;;;;;-148.88;100.00;75893.00;5019528;28;20390;-85
2022/05/29 08:19:05;;;;;;;11.98;5.22;;;;;;;-148.88;99.45;75870.66;5036002;28;20112;-83
2022/05/29 08:21:31;;;;;;;9.25;3.85;;;;;;;-148.88;97.41;75874.72;5035737;28;20060;-83
2022/05/29 08:32:08;;;;;;;8.50;3.38;;;;;;;-148.88;96.11;75915.34;5036217;28;20309;-86
2022/05/29 08:34:33;;;;;;;8.25;3.35;;;;;;;-148.88;96.49;75899.09;5035549;28;20033;-84
2022/05/29 08:37:01;;;;;;;9.60;3.53;;;;;;;-148.88;96.37;75903.16;5036146;28;20034;-84
2022/05/29 08:39:30;;;;;;;9.35;3.40;;;;;;;-148.88;95.92;75913.31;5018473;28;20025;-83
2022/05/29 08:41:59;;;;;;;11.57;3.28;;;;;;;-148.88;95.29;75945.81;5035530;28;20398;-83
2022/05/29 08:44:59;;;;;;;9.98;3.58;;;;;;;-148.88;97.25;75951.91;5018269;28;20393;-83
2022/05/29 08:47:28;;;;;;;11.13;4.15;;;;;;;-148.88;99.88;75945.81;4987440;28;20505;-84
2022/05/29 08:50:02;;;;;;;13.48;4.97;;;;;;;-148.88;99.88;75915.34;5018238;28;20034;-84
2022/05/29 08:52:49;;;;;;;;;;;;;;;-148.88;97.72;75919.41;5018194;28;20021;-84
2022/05/29 08:55:42;;;;;;;9.95;3.38;;;;;;;-148.88;97.75;75895.03;5018256;28;19927;-84
2022/05/29 08:58:26;;;;;;;12.30;3.78;;;;;;;-148.88;98.12;75878.78;5016627;28;20037;-84
2022/05/29 09:01:12;;;;;;;8.77;1.83;;;;;;;-148.88;90.90;75915.34;5034997;28;20452;-85
2022/05/29 09:03:46;;;;;;;5.32;1.52;;;;;;;-148.88;88.25;75937.69;5018254;28;20104;-85
2022/05/29 09:06:21;;;;;;;7.70;1.90;;;;;;;-148.88;90.85;75927.53;5017394;28;20029;-84
2022/05/29 09:09:16;;;;;;;5.88;2.05;;;;;;;-148.88;92.02;75911.28;5017611;28;20029;-85
2022/05/29 09:11:51;;;;;;;5.78;2.03;;;;;;;-148.88;90.43;75915.34;5016476;28;20117;-84
2022/05/29 09:14:47;;;;;;;6.05;2.10;;;;;;;-148.88;90.09;75895.03;5017406;28;20068;-83
2022/05/29 09:17:31;;;;;;;9.30;2.35;;;;;;;-148.88;88.90;75882.84;5035846;28;20018;-82
2022/05/29 09:20:40;;;;;;;5.28;1.70;;;;;;;-148.88;90.46;75866.59;5018225;28;20017;-84
2022/05/29 09:23:12;;;;;;;5.57;2.15;;;;;;;-148.88;91.32;75854.41;5018695;28;20018;-81
2022/05/29 09:25:43;;;;;;;5.20;2.65;;;;;;;-148.88;91.66;75866.59;5035566;28;20025;-83
2022/05/29 09:28:53;;;;;;;8.80;2.95;;;;;;;-148.88;92.48;75864.56;5035683;28;20033;-83
2022/05/29 09:31:24;;;;;;;9.60;2.55;;;;;;;-148.88;91.21;75870.66;5046427;28;20023;-83
2022/05/29 09:33:51;;;;;;;8.60;2.72;;;;;;;-148.88;89.63;75878.78;5057004;28;20021;-85
2022/05/29 09:36:39;;;;;;;9.75;2.35;;;;;;;-148.88;91.98;75866.59;5052831;28;20025;-85
2022/05/29 09:39:43;;;;;;;8.10;2.67;;;;;;;-148.88;93.41;75862.53;5039854;28;20479;-84
2022/05/29 09:42:21;;;;;;;9.93;2.97;;;;;;;-148.88;91.96;75895.03;5023203;28;20451;-86
2022/05/29 09:45:22;;;;;;;8.82;2.50;;;;;;;-148.88;91.86;75899.09;5041212;28;20041;-84
2022/05/29 09:51:01;;;;;;;17.08;3.50;;;;;;;-148.88;95.03;75878.78;4978470;28;20487;-86
2022/05/29 09:53:47;;;;;;;10.43;2.63;;;;;;;-148.88;94.61;75882.84;5014594;28;20097;-87
2022/05/29 09:56:17;;;;;;;7.45;2.50;;;;;;;-148.88;93.57;75903.16;5038489;28;20494;-85
2022/05/29 09:59:00;;;;;;;9.82;2.42;;;;;;;-148.88;94.80;75935.66;5019027;28;20029;-86
2022/05/29 10:01:47;;;;;;;8.88;3.15;;;;;;;-148.88;96.67;75929.56;5020559;28;20474;-88
2022/05/29 10:04:20;;;;;;;9.05;3.00;;;;;;;-148.88;97.40;75913.31;5035133;28;20029;-87
2022/05/29 10:06:56;;;;;;;8.30;3.60;;;;;;;-148.88;98.37;75878.78;5018580;28;20120;-87
2022/05/29 10:09:27;;;;;;;9.55;2.70;;;;;;;-148.88;95.97;75852.38;5038073;28;20036;-86
2022/05/29 10:12:15;;;;;;;12.10;3.20;;;;;;;-148.88;96.57;75825.97;5017613;28;20056;-85
2022/05/29 10:14:45;;;;;;;11.00;3.13;;;;;;;-148.88;94.49;75809.72;5034795;28;20525;-87
2022/05/29 10:17:14;;;;;;;6.32;2.33;;;;;;;-148.88;91.71;75805.66;5034580;28;20097;-88
2022/05/29 10:19:43;;;;;;;12.90;2.90;;;;;;;-148.88;92.02;75797.53;5034339;28;20064;-86
2022/05/29 10:22:16;;;;;;;11.00;2.65;;;;;;;-148.88;91.10;75793.47;5034685;28;20026;-84
2022/05/29 10:24:42;;;;;;;5.55;2.35;;;;;;;-148.88;88.93;75775.19;5039375;28;20029;-85
2022/05/29 10:27:33;;;;;;;8.20;2.35;;;;;;;-148.88;90.04;75791.44;5019681;28;20032;-84
2022/05/29 10:30:03;;;;;;;7.10;2.55;;;;;;;-148.88;91.50;75773.16;5020101;28;20087;-85
2022/05/29 10:32:33;;;;;;;8.45;2.47;;;;;;;-148.88;90.64;75756.91;5018676;28;20040;-85
2022/05/29 10:35:13;;;;;;;10.10;2.30;;;;;;;-148.88;89.24;75744.72;5035780;28;20075;-85
2022/05/29 10:37:44;;;;;;;6.72;2.60;;;;;;;-148.88;89.31;75712.22;5019187;28;20022;-87
2022/05/29 10:40:21;;;;;;;8.40;2.38;;;;;;;-148.88;87.21;75722.38;5017683;28;20029;-85
2022/05/29 10:43:00;;;;;;;5.95;1.58;;;;;;;-148.88;82.63;75738.63;5016671;28;20025;-86
2022/05/29 10:45:40;;;;;;;5.80;1.58;;;;;;;-148.88;81.30;75760.97;5034140;28;20068;-85
2022/05/29 10:48:11;;;;;;;5.80;1.60;;;;;;;-148.88;79.88;75752.84;5016142;28;20021;-86
2022/05/29 10:50:36;;;;;;;4.88;1.60;;;;;;;-148.88;79.87;75744.72;5035003;28;20030;-86
2022/05/29 10:53:33;;;;;;;6.60;1.77;;;;;;;-148.88;80.00;75728.47;5020189;28;20017;-87
2022/05/29 10:56:12;;;;;;;7.30;1.60;;;;;;;-148.88;77.75;75742.69;4994130;28;20277;-85
2022/05/29 10:58:53;;;;;;;5.18;1.40;;;;;;;-148.88;81.28;75724.41;5020359;28;20026;-85
2022/05/29 11:04:43;;;;;;;7.97;1.70;;;;;;;-148.88;83.65;75724.41;5037033;28;20060;-86
2022/05/29 11:07:21;;;;;;;8.25;1.60;;;;;;;-148.88;81.33;75750.81;5020826;28;20047;-86
2022/05/29 11:10:03;;;;;;;6.93;2.03;;;;;;;-148.88;82.07;75779.25;5019383;28;20060;-86
2022/05/29 11:12:55;;;;;;;4.55;1.65;;;;;;;-148.88;81.84;75760.97;5020037;28;20060;-86
2022/05/29 11:15:40;;;;;;;8.80;1.58;;;;;;;-148.88;84.42;75732.53;5019400;28;20083;-85
2022/05/29 11:18:26;;;;;;;9.23;1.83;;;;;;;-148.88;83.75;75728.47;5018597;28;20498;-86
2022/05/29 11:21:02;;;;;;;8.52;1.85;;;;;;;-148.88;81.93;75718.31;5019468;28;20030;-85
2022/05/29 11:23:57;;;;;;;9.68;1.88;;;;;;;-148.88;83.72;75667.53;5016704;28;20049;-83
2022/05/29 11:26:42;;;;;;;7.68;1.60;;;;;;;-148.88;83.18;75633.00;4988050;28;20038;-84
2022/05/29 11:29:43;;;;;;;3.80;1.45;;;;;;;-148.88;82.27;75637.06;5033535;28;20025;-84
2022/05/29 11:32:35;;;;;;;5.70;1.58;;;;;;;-148.88;80.65;75663.47;5017945;28;20028;-86
2022/05/29 11:35:36;;;;;;;6.95;1.65;;;;;;;-148.88;78.62;75683.78;5031573;28;20040;-86
2022/05/29 11:38:16;;;;;;;7.18;1.42;;;;;;;-148.88;80.95;75659.41;5022484;28;20057;-86
2022/05/29 11:40:49;;;;;;;4.28;1.35;;;;;;;-148.88;80.97;75649.25;5039202;28;20041;-86
2022/05/29 11:43:27;;;;;;;3.15;1.10;;;;;;;-148.88;81.31;75667.53;5022446;28;20048;-86
2022/05/29 11:52:00;;;;;;;4.65;1.20;;;;;;;-148.88;80.20;75671.59;5042364;28;20312;-87
2022/05/29 11:54:34;;;;;;;3.38;1.00;;;;;;;-148.88;80.10;75681.75;5041155;28;20029;-85
2022/05/29 11:57:11;;;;;;;6.43;1.40;;;;;;;-148.88;82.14;75659.41;5023466;28;20386;-86
2022/05/29 11:59:48;;;;;;;6.55;1.60;;;;;;;-148.88;82.16;75647.22;5022401;28;20021;-84
2022/05/29 12:02:30;;;;;;;4.72;1.20;;;;;;;-148.88;77.87;75663.47;5019304;28;20488;-84
2022/05/29 12:05:17;;;;;;;4.88;0.90;;;;;;;-148.88;76.83;75659.41;5018950;28;20033;-86
2022/05/29 12:07:50;;;;;;;2.83;0.73;;;;;;;-148.88;76.22;75687.84;5019203;28;20040;-82
2022/05/29 12:10:22;;;;;;;3.47;0.75;;;;;;;-148.88;74.55;75691.91;5018436;28;20036;-85
2022/05/29 12:13:17;;;;;;;3.92;0.70;;;;;;;-148.88;75.00;75700.03;5019178;28;20017;-84
2022/05/29 12:15:54;;;;;;;3.38;0.70;;;;;;;-148.88;77.09;75687.84;5019047;28;20399;-85
2022/05/29 12:18:30;;;;;;;3.55;0.80;;;;;;;-148.88;76.22;75702.06;5036720;28;20021;-85